IGO301 VABB-WSSS
Flight info
| Callsign | IGO301 |
|---|---|
| Flight time | N/A |
| Altitude | 34000 |
| Route | VABB/27 N0465F350 VEVA2A AGELA N571 BIKEN/N0458F370 N571 GUNIP M630 NIREN Y511 TOPOR A464 ARAMA LELI3B WSSS/20R |
| Aircraft | A321/M-SDFGHIRWY/C |
Departure
| Time | 2026-05-04 08:50 |
|---|---|
| Airport | Chhatrapati Shivaji Maharaj International Airport (VABB) |
Arrival
| Time | N/A |
|---|---|
| Airport | Singapore Changi Airport (WSSS) |
| Time | Latitude | Longitude | Altitude | Speed | Heading |
|---|---|---|---|---|---|
| 2026-05-04 08:31 | 19.09549 | 72.86806 | 37 ft | 0 kts | 322° |
| 2026-05-04 08:38 | 19.09540 | 72.86814 | 36 ft | 3 kts | 322° |
| 2026-05-04 08:40 | 19.09513 | 72.86879 | 34 ft | 0 kts | 225° |
| 2026-05-04 08:43 | 19.09511 | 72.86877 | 36 ft | 1 kts | 225° |
| 2026-05-04 08:43 | 19.09504 | 72.86868 | 36 ft | 0 kts | 225° |
| 2026-05-04 08:44 | 19.09503 | 72.86868 | 36 ft | 0 kts | 225° |
| 2026-05-04 08:44 | 19.09458 | 72.86825 | 36 ft | 12 kts | 201° |
| 2026-05-04 08:46 | 19.09130 | 72.87254 | 36 ft | 17 kts | 174° |
| 2026-05-04 08:46 | 19.09055 | 72.87332 | 37 ft | 24 kts | 97° |
| 2026-05-04 08:46 | 19.09051 | 72.87409 | 38 ft | 29 kts | 90° |
| 2026-05-04 08:46 | 19.09051 | 72.87432 | 38 ft | 31 kts | 90° |
| 2026-05-04 08:47 | 19.09053 | 72.87562 | 39 ft | 42 kts | 89° |
| 2026-05-04 08:47 | 19.09057 | 72.87857 | 40 ft | 43 kts | 89° |
| 2026-05-04 08:47 | 19.09049 | 72.88037 | 40 ft | 11 kts | 124° |
| 2026-05-04 08:47 | 19.08954 | 72.88047 | 40 ft | 21 kts | 198° |
| 2026-05-04 08:48 | 19.08912 | 72.88027 | 40 ft | 19 kts | 218° |
| 2026-05-04 08:48 | 19.08888 | 72.87939 | 40 ft | 25 kts | 269° |
| 2026-05-04 08:48 | 19.08881 | 72.87454 | 39 ft | 109 kts | 269° |
| 2026-05-04 08:48 | 19.08864 | 72.86349 | 35 ft | 185 kts | 267° |
| 2026-05-04 08:49 | 19.08845 | 72.84911 | 622 ft | 205 kts | 268° |
| 2026-05-04 08:50 | 19.08617 | 72.74654 | 5765 ft | 244 kts | 263° |
| 2026-05-04 08:50 | 19.07996 | 72.72961 | 6342 ft | 254 kts | 240° |
| 2026-05-04 08:51 | 19.06638 | 72.71683 | 6785 ft | 276 kts | 210° |
| 2026-05-04 08:51 | 19.04702 | 72.71272 | 7266 ft | 299 kts | 178° |
| 2026-05-04 08:51 | 19.02664 | 72.71933 | 7772 ft | 316 kts | 155° |
| 2026-05-04 08:51 | 19.00691 | 72.73063 | 8275 ft | 329 kts | 151° |
| 2026-05-04 08:52 | 18.98650 | 72.74261 | 8782 ft | 341 kts | 156° |
| 2026-05-04 08:52 | 18.96325 | 72.74818 | 9285 ft | 349 kts | 178° |
| 2026-05-04 08:52 | 18.93856 | 72.74794 | 9732 ft | 361 kts | 184° |
| 2026-05-04 08:52 | 18.91302 | 72.74490 | 9942 ft | 377 kts | 189° |
| 2026-05-04 08:53 | 18.88643 | 72.74243 | 10152 ft | 388 kts | 180° |
| 2026-05-04 08:54 | 18.69885 | 72.76972 | 12393 ft | 396 kts | 162° |
| 2026-05-04 08:55 | 18.67262 | 72.77898 | 12747 ft | 398 kts | 162° |
| 2026-05-04 08:55 | 18.64628 | 72.78826 | 13079 ft | 400 kts | 161° |
| 2026-05-04 08:55 | 18.62103 | 72.80066 | 13227 ft | 402 kts | 152° |
| 2026-05-04 08:55 | 18.59537 | 72.81213 | 13569 ft | 402 kts | 165° |
| 2026-05-04 08:57 | 18.40536 | 72.87203 | 15858 ft | 415 kts | 163° |
| 2026-05-04 09:01 | 18.03077 | 73.04957 | 20570 ft | 440 kts | 131° |
| 2026-05-04 09:01 | 18.01089 | 73.07412 | 20908 ft | 442 kts | 131° |
| 2026-05-04 09:01 | 17.99116 | 73.09847 | 21239 ft | 443 kts | 131° |
| 2026-05-04 09:01 | 17.97111 | 73.12311 | 21593 ft | 445 kts | 131° |
| 2026-05-04 09:02 | 17.95094 | 73.14783 | 21949 ft | 446 kts | 131° |
| 2026-05-04 09:02 | 17.93068 | 73.17261 | 22289 ft | 447 kts | 132° |
| 2026-05-04 09:02 | 17.91039 | 73.19739 | 22658 ft | 449 kts | 132° |
| 2026-05-04 09:02 | 17.88999 | 73.22229 | 23023 ft | 450 kts | 132° |
| 2026-05-04 09:03 | 17.86953 | 73.24724 | 23380 ft | 451 kts | 132° |
| 2026-05-04 09:03 | 17.84898 | 73.27229 | 23697 ft | 453 kts | 132° |
| 2026-05-04 09:03 | 17.82840 | 73.29737 | 24000 ft | 455 kts | 132° |
| 2026-05-04 09:03 | 17.80768 | 73.32259 | 24288 ft | 457 kts | 132° |
| 2026-05-04 09:04 | 17.78687 | 73.34792 | 24611 ft | 459 kts | 132° |
| 2026-05-04 09:04 | 17.76596 | 73.37336 | 24936 ft | 461 kts | 132° |
| 2026-05-04 09:04 | 17.74494 | 73.39893 | 25244 ft | 463 kts | 132° |
| 2026-05-04 09:04 | 17.72412 | 73.42424 | 25564 ft | 465 kts | 132° |
| 2026-05-04 09:05 | 17.70293 | 73.45000 | 25883 ft | 467 kts | 132° |
| 2026-05-04 09:05 | 17.68165 | 73.47585 | 26206 ft | 468 kts | 132° |
| 2026-05-04 09:05 | 17.66030 | 73.50179 | 26539 ft | 470 kts | 132° |
| 2026-05-04 09:05 | 17.63888 | 73.52779 | 26887 ft | 471 kts | 132° |
| 2026-05-04 09:06 | 17.61750 | 73.55374 | 27219 ft | 472 kts | 132° |
| 2026-05-04 09:07 | 17.46677 | 73.73638 | 29728 ft | 474 kts | 132° |
| 2026-05-04 09:08 | 17.44520 | 73.76247 | 30084 ft | 473 kts | 132° |
| 2026-05-04 09:08 | 17.42367 | 73.78853 | 30380 ft | 473 kts | 132° |
| 2026-05-04 09:08 | 17.40338 | 73.81571 | 30701 ft | 473 kts | 124° |
| 2026-05-04 09:08 | 17.38686 | 73.84547 | 31025 ft | 473 kts | 118° |
| 2026-05-04 09:09 | 17.37205 | 73.87600 | 31332 ft | 472 kts | 117° |
| 2026-05-04 09:09 | 17.35744 | 73.90690 | 31674 ft | 471 kts | 117° |
| 2026-05-04 09:09 | 17.34291 | 73.93765 | 32001 ft | 470 kts | 117° |
| 2026-05-04 09:09 | 17.32859 | 73.96787 | 32327 ft | 469 kts | 117° |
| 2026-05-04 09:10 | 17.31410 | 73.99836 | 32674 ft | 468 kts | 117° |
| 2026-05-04 09:10 | 17.29958 | 74.02885 | 33021 ft | 466 kts | 117° |
| 2026-05-04 09:10 | 17.28513 | 74.05917 | 33359 ft | 464 kts | 117° |
| 2026-05-04 09:10 | 17.27071 | 74.08939 | 33712 ft | 462 kts | 117° |
| 2026-05-04 09:11 | 17.25626 | 74.11965 | 33856 ft | 465 kts | 117° |
| 2026-05-04 09:11 | 17.22740 | 74.18005 | 33875 ft | 464 kts | 117° |
| 2026-05-04 09:12 | 17.19845 | 74.24057 | 33867 ft | 465 kts | 117° |
| 2026-05-04 09:14 | 17.08274 | 74.48194 | 33868 ft | 464 kts | 117° |
| 2026-05-04 09:14 | 17.05373 | 74.54231 | 33857 ft | 464 kts | 117° |
| 2026-05-04 09:15 | 17.02472 | 74.60262 | 33861 ft | 464 kts | 117° |
| 2026-05-04 09:15 | 16.99583 | 74.66263 | 33862 ft | 465 kts | 117° |
| 2026-05-04 09:17 | 16.86204 | 74.93982 | 33858 ft | 488 kts | 117° |
| 2026-05-04 09:18 | 16.83163 | 75.00268 | 33854 ft | 488 kts | 118° |
| 2026-05-04 09:18 | 16.80098 | 75.06596 | 33860 ft | 488 kts | 117° |
| 2026-05-04 09:19 | 16.77040 | 75.12903 | 33854 ft | 487 kts | 118° |
| 2026-05-04 09:19 | 16.73983 | 75.19202 | 33854 ft | 486 kts | 118° |
| 2026-05-04 09:20 | 16.70921 | 75.25501 | 33854 ft | 486 kts | 118° |
| 2026-05-04 09:20 | 16.67861 | 75.31794 | 33853 ft | 486 kts | 118° |
| 2026-05-04 09:21 | 16.64799 | 75.38084 | 33854 ft | 486 kts | 118° |
| 2026-05-04 09:21 | 16.61753 | 75.44338 | 33855 ft | 486 kts | 118° |
| 2026-05-04 09:22 | 16.58744 | 75.50647 | 33853 ft | 486 kts | 117° |
| 2026-05-04 09:22 | 16.55817 | 75.56998 | 33853 ft | 486 kts | 116° |
| 2026-05-04 09:23 | 16.52898 | 75.63352 | 33852 ft | 485 kts | 116° |
| 2026-05-04 09:23 | 16.49975 | 75.69683 | 33854 ft | 484 kts | 116° |
| 2026-05-04 09:25 | 16.38262 | 75.94902 | 33852 ft | 484 kts | 117° |
| 2026-05-04 09:26 | 16.35325 | 76.01204 | 33853 ft | 484 kts | 117° |
| 2026-05-04 09:26 | 16.32365 | 76.07499 | 33854 ft | 484 kts | 117° |
| 2026-05-04 09:27 | 16.29396 | 76.13789 | 33851 ft | 484 kts | 117° |
| 2026-05-04 09:27 | 16.26427 | 76.20078 | 33851 ft | 483 kts | 117° |
| 2026-05-04 09:28 | 16.23465 | 76.26348 | 33852 ft | 481 kts | 117° |
| 2026-05-04 09:28 | 16.20545 | 76.32528 | 33854 ft | 477 kts | 117° |
| 2026-05-04 09:29 | 16.17614 | 76.38723 | 33848 ft | 477 kts | 117° |
| 2026-05-04 09:29 | 16.14684 | 76.44910 | 33848 ft | 477 kts | 118° |
| 2026-05-04 09:30 | 16.11752 | 76.51097 | 33848 ft | 476 kts | 118° |
| 2026-05-04 09:30 | 16.08821 | 76.57276 | 33845 ft | 476 kts | 118° |
| 2026-05-04 09:31 | 16.05892 | 76.63444 | 33838 ft | 476 kts | 118° |
| 2026-05-04 09:31 | 16.02965 | 76.69603 | 33834 ft | 476 kts | 118° |
| 2026-05-04 09:32 | 16.00049 | 76.75733 | 33833 ft | 476 kts | 118° |
| 2026-05-04 09:34 | 15.88327 | 77.00323 | 33825 ft | 474 kts | 118° |
| 2026-05-04 09:34 | 15.85393 | 77.06464 | 33824 ft | 475 kts | 118° |
| 2026-05-04 09:35 | 15.82453 | 77.12614 | 33820 ft | 474 kts | 118° |
| 2026-05-04 09:35 | 15.80013 | 77.17711 | 33814 ft | 474 kts | 118° |
| 2026-05-04 09:37 | 15.68268 | 77.42258 | 33809 ft | 475 kts | 118° |
| 2026-05-04 09:38 | 15.65339 | 77.48415 | 33808 ft | 475 kts | 118° |
| 2026-05-04 09:38 | 15.62405 | 77.54576 | 33805 ft | 475 kts | 118° |
| 2026-05-04 09:39 | 15.59473 | 77.60723 | 33807 ft | 475 kts | 118° |
| 2026-05-04 09:39 | 15.56542 | 77.66863 | 33814 ft | 474 kts | 118° |
| 2026-05-04 09:40 | 15.53629 | 77.72957 | 33817 ft | 474 kts | 118° |
| 2026-05-04 09:40 | 15.50693 | 77.79096 | 33816 ft | 474 kts | 118° |
| 2026-05-04 09:42 | 15.38942 | 78.03612 | 33814 ft | 475 kts | 118° |
| 2026-05-04 09:43 | 15.36012 | 78.09712 | 33813 ft | 475 kts | 118° |
| 2026-05-04 09:43 | 15.33038 | 78.15833 | 33795 ft | 475 kts | 118° |
| 2026-05-04 09:44 | 15.30046 | 78.21946 | 33795 ft | 476 kts | 118° |
| 2026-05-04 09:46 | 15.18069 | 78.46397 | 33765 ft | 476 kts | 118° |
| 2026-05-04 09:46 | 15.15066 | 78.52513 | 33763 ft | 476 kts | 118° |
| 2026-05-04 09:47 | 15.12065 | 78.58624 | 33767 ft | 476 kts | 118° |
| 2026-05-04 09:49 | 15.00047 | 78.83059 | 33754 ft | 477 kts | 118° |
| 2026-05-04 09:51 | 14.89484 | 79.04469 | 33737 ft | 477 kts | 119° |
| 2026-05-04 09:51 | 14.86479 | 79.10546 | 33737 ft | 478 kts | 119° |
| 2026-05-04 09:52 | 14.83446 | 79.16678 | 33735 ft | 479 kts | 119° |
| 2026-05-04 09:52 | 14.80404 | 79.22820 | 33732 ft | 479 kts | 119° |
| 2026-05-04 09:53 | 14.77364 | 79.28954 | 33728 ft | 479 kts | 119° |
| 2026-05-04 09:53 | 14.74324 | 79.35085 | 33726 ft | 479 kts | 119° |
| 2026-05-04 09:54 | 14.71296 | 79.41183 | 33724 ft | 479 kts | 119° |
| 2026-05-04 09:54 | 14.68253 | 79.47309 | 33726 ft | 480 kts | 119° |
| 2026-05-04 09:55 | 14.65199 | 79.53451 | 33724 ft | 481 kts | 119° |
| 2026-05-04 09:55 | 14.62141 | 79.59595 | 33726 ft | 481 kts | 119° |
| 2026-05-04 09:56 | 14.59084 | 79.65735 | 33732 ft | 481 kts | 119° |
| 2026-05-04 09:56 | 14.56023 | 79.71876 | 33734 ft | 481 kts | 119° |
| 2026-05-04 09:57 | 14.52963 | 79.78010 | 33734 ft | 481 kts | 119° |
| 2026-05-04 09:57 | 14.49898 | 79.84150 | 33743 ft | 480 kts | 119° |
| 2026-05-04 09:58 | 14.46856 | 79.90241 | 33738 ft | 480 kts | 119° |
| 2026-05-04 09:58 | 14.43788 | 79.96376 | 33740 ft | 480 kts | 119° |
| 2026-05-04 10:00 | 14.31530 | 80.20842 | 33754 ft | 479 kts | 119° |
| 2026-05-04 10:04 | 14.10045 | 80.63547 | 33751 ft | 480 kts | 119° |
| 2026-05-04 10:04 | 14.06981 | 80.69617 | 33753 ft | 480 kts | 119° |
| 2026-05-04 10:05 | 14.03896 | 80.75725 | 33739 ft | 480 kts | 119° |
| 2026-05-04 10:05 | 14.00811 | 80.81828 | 33751 ft | 480 kts | 119° |
| 2026-05-04 10:06 | 13.97779 | 80.87954 | 33747 ft | 480 kts | 118° |
| 2026-05-04 10:06 | 13.94804 | 80.94100 | 33751 ft | 479 kts | 118° |
| 2026-05-04 10:08 | 13.84427 | 81.15455 | 33755 ft | 477 kts | 119° |
| 2026-05-04 10:08 | 13.81447 | 81.21564 | 33757 ft | 477 kts | 119° |
| 2026-05-04 10:09 | 13.78470 | 81.27663 | 33760 ft | 477 kts | 119° |
| 2026-05-04 10:09 | 13.75495 | 81.33759 | 33764 ft | 476 kts | 119° |
| 2026-05-04 10:10 | 13.72519 | 81.39846 | 33763 ft | 476 kts | 119° |
| 2026-05-04 10:10 | 13.69565 | 81.45884 | 33762 ft | 475 kts | 119° |
| 2026-05-04 10:11 | 13.66605 | 81.51947 | 33766 ft | 474 kts | 119° |
| 2026-05-04 10:11 | 13.63651 | 81.58001 | 33769 ft | 474 kts | 119° |
| 2026-05-04 10:12 | 13.60692 | 81.64057 | 33774 ft | 474 kts | 119° |
| 2026-05-04 10:12 | 13.57731 | 81.70109 | 33776 ft | 474 kts | 120° |
| 2026-05-04 10:13 | 13.54765 | 81.76165 | 33774 ft | 474 kts | 120° |
| 2026-05-04 10:13 | 13.51798 | 81.82223 | 33774 ft | 474 kts | 120° |
| 2026-05-04 10:14 | 13.48847 | 81.88246 | 33777 ft | 474 kts | 120° |
| 2026-05-04 10:16 | 13.36967 | 82.12459 | 33778 ft | 474 kts | 120° |
| 2026-05-04 10:16 | 13.33996 | 82.18502 | 33780 ft | 473 kts | 120° |
| 2026-05-04 10:17 | 13.31029 | 82.24529 | 33781 ft | 473 kts | 120° |
| 2026-05-04 10:19 | 13.19138 | 82.48645 | 33785 ft | 477 kts | 120° |
| 2026-05-04 10:19 | 13.16140 | 82.54715 | 33785 ft | 477 kts | 120° |
| 2026-05-04 10:20 | 13.13132 | 82.60801 | 33790 ft | 477 kts | 120° |
| 2026-05-04 10:20 | 13.10127 | 82.66876 | 33790 ft | 477 kts | 120° |
| 2026-05-04 10:21 | 13.07144 | 82.72903 | 33796 ft | 477 kts | 120° |
| 2026-05-04 10:21 | 13.04134 | 82.78978 | 33796 ft | 477 kts | 120° |
| 2026-05-04 10:22 | 12.99621 | 82.88081 | 33798 ft | 477 kts | 120° |
| 2026-05-04 10:23 | 12.96611 | 82.94148 | 33799 ft | 477 kts | 120° |
| 2026-05-04 10:25 | 12.85090 | 83.17324 | 33804 ft | 477 kts | 120° |
| 2026-05-04 10:25 | 12.82063 | 83.23402 | 33802 ft | 479 kts | 120° |
| 2026-05-04 10:26 | 12.79033 | 83.29482 | 33803 ft | 479 kts | 120° |
| 2026-05-04 10:26 | 12.76003 | 83.35560 | 33804 ft | 479 kts | 120° |
| 2026-05-04 10:27 | 12.72968 | 83.41644 | 33801 ft | 479 kts | 120° |
| 2026-05-04 10:27 | 12.69954 | 83.47679 | 33807 ft | 479 kts | 120° |
| 2026-05-04 10:28 | 12.66920 | 83.53751 | 33807 ft | 479 kts | 119° |
| 2026-05-04 10:28 | 12.63927 | 83.59849 | 33807 ft | 480 kts | 118° |
| 2026-05-04 10:29 | 12.60984 | 83.65987 | 33808 ft | 480 kts | 118° |
| 2026-05-04 10:29 | 12.58045 | 83.72127 | 33808 ft | 480 kts | 118° |
| 2026-05-04 10:30 | 12.55096 | 83.78267 | 33804 ft | 480 kts | 118° |
| 2026-05-04 10:30 | 12.52142 | 83.84400 | 33808 ft | 480 kts | 118° |
| 2026-05-04 10:31 | 12.49187 | 83.90532 | 33806 ft | 480 kts | 118° |
| 2026-05-04 10:32 | 12.38814 | 84.12017 | 33807 ft | 482 kts | 118° |
| 2026-05-04 10:33 | 12.35840 | 84.18168 | 33806 ft | 482 kts | 118° |
| 2026-05-04 10:33 | 12.32861 | 84.24324 | 33807 ft | 482 kts | 118° |
| 2026-05-04 10:34 | 12.29880 | 84.30479 | 33802 ft | 482 kts | 117° |
| 2026-05-04 10:34 | 12.26902 | 84.36625 | 33807 ft | 482 kts | 117° |
| 2026-05-04 10:35 | 12.23942 | 84.42731 | 33810 ft | 482 kts | 117° |
| 2026-05-04 10:35 | 12.20964 | 84.48871 | 33810 ft | 482 kts | 117° |
| 2026-05-04 10:36 | 12.17985 | 84.55006 | 33810 ft | 482 kts | 117° |
| 2026-05-04 10:36 | 12.15000 | 84.61151 | 33809 ft | 482 kts | 117° |
| 2026-05-04 10:37 | 12.12017 | 84.67286 | 33809 ft | 482 kts | 117° |
| 2026-05-04 10:37 | 12.09029 | 84.73428 | 33812 ft | 482 kts | 117° |
| 2026-05-04 10:39 | 11.98570 | 84.94883 | 33812 ft | 481 kts | 117° |
| 2026-05-04 10:40 | 11.95587 | 85.00994 | 33813 ft | 479 kts | 117° |
| 2026-05-04 10:40 | 11.92612 | 85.07083 | 33812 ft | 479 kts | 116° |
| 2026-05-04 10:41 | 11.89636 | 85.13173 | 33808 ft | 479 kts | 116° |
| 2026-05-04 10:41 | 11.86682 | 85.19222 | 33812 ft | 478 kts | 116° |
| 2026-05-04 10:42 | 11.83709 | 85.25307 | 33813 ft | 479 kts | 116° |
| 2026-05-04 10:42 | 11.80733 | 85.31389 | 33818 ft | 478 kts | 116° |
| 2026-05-04 10:43 | 11.77751 | 85.37477 | 33817 ft | 479 kts | 116° |
| 2026-05-04 10:44 | 11.67452 | 85.58472 | 33820 ft | 468 kts | 118° |
| 2026-05-04 10:45 | 11.65991 | 85.61447 | 33820 ft | 468 kts | 118° |
| 2026-05-04 10:45 | 11.63090 | 85.67348 | 33820 ft | 468 kts | 118° |
| 2026-05-04 10:46 | 11.60170 | 85.73286 | 33819 ft | 468 kts | 118° |
| 2026-05-04 10:46 | 11.57243 | 85.79234 | 33818 ft | 468 kts | 118° |
| 2026-05-04 10:47 | 11.54317 | 85.85176 | 33819 ft | 468 kts | 118° |
| 2026-05-04 10:47 | 11.51413 | 85.91072 | 33818 ft | 468 kts | 118° |
| 2026-05-04 10:49 | 11.39701 | 86.14807 | 33820 ft | 468 kts | 118° |
| 2026-05-04 10:50 | 11.36769 | 86.20743 | 33817 ft | 469 kts | 119° |
| 2026-05-04 10:52 | 11.24984 | 86.44552 | 33825 ft | 471 kts | 118° |
| 2026-05-04 10:52 | 11.22030 | 86.50512 | 33825 ft | 471 kts | 118° |
| 2026-05-04 10:54 | 11.10193 | 86.74355 | 33821 ft | 472 kts | 118° |
| 2026-05-04 10:56 | 10.98306 | 86.98242 | 33826 ft | 472 kts | 118° |
| 2026-05-04 10:57 | 10.95332 | 87.04209 | 33826 ft | 472 kts | 118° |
| 2026-05-04 10:57 | 10.92377 | 87.10135 | 33823 ft | 472 kts | 118° |
| 2026-05-04 10:58 | 10.89401 | 87.16094 | 33826 ft | 473 kts | 118° |
| 2026-05-04 10:58 | 10.86423 | 87.22061 | 33826 ft | 473 kts | 118° |
| 2026-05-04 10:59 | 10.83445 | 87.28026 | 33829 ft | 473 kts | 118° |
| 2026-05-04 10:59 | 10.80461 | 87.33995 | 33829 ft | 472 kts | 118° |
| 2026-05-04 11:00 | 10.77487 | 87.39943 | 33830 ft | 472 kts | 118° |
| 2026-05-04 11:02 | 10.65598 | 87.63680 | 33829 ft | 472 kts | 118° |
| 2026-05-04 11:05 | 10.43139 | 88.08365 | 33832 ft | 474 kts | 118° |
| 2026-05-04 11:06 | 10.40129 | 88.14342 | 33835 ft | 476 kts | 118° |
| 2026-05-04 11:06 | 10.37102 | 88.20346 | 33834 ft | 478 kts | 117° |
| 2026-05-04 11:10 | 10.16225 | 88.62472 | 33837 ft | 477 kts | 116° |
| 2026-05-04 11:12 | 10.05081 | 88.86889 | 33840 ft | 477 kts | 116° |
| 2026-05-04 11:12 | 10.02278 | 88.92991 | 33840 ft | 477 kts | 116° |
| 2026-05-04 11:13 | 9.99476 | 88.99087 | 33839 ft | 477 kts | 116° |
| 2026-05-04 11:13 | 9.96668 | 89.05193 | 33840 ft | 477 kts | 116° |
| 2026-05-04 11:16 | 9.83160 | 89.34526 | 33843 ft | 470 kts | 116° |
| 2026-05-04 11:16 | 9.80373 | 89.40561 | 33843 ft | 474 kts | 116° |
| 2026-05-04 11:17 | 9.77572 | 89.46628 | 33842 ft | 475 kts | 116° |
| 2026-05-04 11:19 | 9.66384 | 89.70834 | 33843 ft | 475 kts | 116° |
| 2026-05-04 11:19 | 9.63580 | 89.76892 | 33843 ft | 475 kts | 116° |
| 2026-05-04 11:20 | 9.60772 | 89.82956 | 33843 ft | 475 kts | 116° |
| 2026-05-04 11:20 | 9.57967 | 89.89010 | 33842 ft | 475 kts | 116° |
| 2026-05-04 11:22 | 9.46773 | 90.13134 | 33843 ft | 471 kts | 116° |
| 2026-05-04 11:23 | 9.43972 | 90.19162 | 33846 ft | 474 kts | 116° |
| 2026-05-04 11:25 | 9.34125 | 90.40331 | 33845 ft | 474 kts | 116° |
| 2026-05-04 11:25 | 9.31340 | 90.46312 | 33846 ft | 471 kts | 116° |
| 2026-05-04 11:27 | 9.18766 | 90.73272 | 33848 ft | 470 kts | 116° |
| 2026-05-04 11:28 | 9.15970 | 90.79258 | 33848 ft | 471 kts | 116° |
| 2026-05-04 11:28 | 9.13184 | 90.85222 | 33848 ft | 471 kts | 116° |
| 2026-05-04 11:29 | 9.10379 | 90.91221 | 33848 ft | 471 kts | 116° |
| 2026-05-04 11:29 | 9.07568 | 90.97231 | 33849 ft | 472 kts | 116° |
| 2026-05-04 11:33 | 8.87808 | 91.39378 | 33848 ft | 474 kts | 116° |
| 2026-05-04 11:33 | 8.84981 | 91.45399 | 33848 ft | 474 kts | 116° |
| 2026-05-04 11:34 | 8.82169 | 91.51388 | 33848 ft | 474 kts | 116° |
| 2026-05-04 11:34 | 8.79335 | 91.57420 | 33848 ft | 474 kts | 115° |
| 2026-05-04 11:35 | 8.76508 | 91.63434 | 33848 ft | 474 kts | 115° |
| 2026-05-04 11:35 | 8.73680 | 91.69446 | 33848 ft | 473 kts | 115° |
| 2026-05-04 11:36 | 8.70844 | 91.75468 | 33848 ft | 474 kts | 115° |
| 2026-05-04 11:36 | 8.68009 | 91.81488 | 33848 ft | 474 kts | 115° |
| 2026-05-04 11:37 | 8.65171 | 91.87511 | 33848 ft | 475 kts | 115° |
| 2026-05-04 11:37 | 8.62349 | 91.93498 | 33847 ft | 473 kts | 115° |
| 2026-05-04 11:38 | 8.59529 | 91.99484 | 33849 ft | 470 kts | 115° |
| 2026-05-04 11:38 | 8.56819 | 92.05486 | 33848 ft | 470 kts | 114° |
| 2026-05-04 11:39 | 8.54166 | 92.11522 | 33849 ft | 470 kts | 114° |
| 2026-05-04 11:41 | 8.44848 | 92.32593 | 33845 ft | 470 kts | 114° |
| 2026-05-04 11:41 | 8.42169 | 92.38628 | 33846 ft | 471 kts | 114° |
| 2026-05-04 11:42 | 8.39484 | 92.44672 | 33845 ft | 471 kts | 114° |
| 2026-05-04 11:42 | 8.36802 | 92.50710 | 33845 ft | 471 kts | 114° |
| 2026-05-04 11:43 | 8.34119 | 92.56747 | 33845 ft | 471 kts | 114° |
| 2026-05-04 11:43 | 8.31441 | 92.62772 | 33845 ft | 468 kts | 114° |
| 2026-05-04 11:44 | 8.28798 | 92.68713 | 33847 ft | 467 kts | 114° |
| 2026-05-04 11:44 | 8.26139 | 92.74683 | 33880 ft | 466 kts | 114° |
| 2026-05-04 11:44 | 8.24815 | 92.77656 | 34087 ft | 466 kts | 114° |
| 2026-05-04 11:45 | 8.23491 | 92.80629 | 34308 ft | 465 kts | 114° |
| 2026-05-04 11:45 | 8.22168 | 92.83599 | 34532 ft | 464 kts | 114° |
| 2026-05-04 11:45 | 8.20844 | 92.86572 | 34752 ft | 463 kts | 114° |
| 2026-05-04 11:46 | 8.18219 | 92.92461 | 34849 ft | 462 kts | 114° |
| 2026-05-04 11:46 | 8.15583 | 92.98373 | 34849 ft | 462 kts | 114° |
| 2026-05-04 11:47 | 8.12945 | 93.04286 | 34849 ft | 462 kts | 114° |
| 2026-05-04 11:47 | 8.10306 | 93.10198 | 34846 ft | 461 kts | 114° |
| 2026-05-04 11:48 | 8.07673 | 93.16095 | 34848 ft | 461 kts | 114° |
| 2026-05-04 11:48 | 8.05035 | 93.22001 | 34850 ft | 461 kts | 114° |
| 2026-05-04 11:49 | 8.02397 | 93.27903 | 34848 ft | 461 kts | 114° |
| 2026-05-04 11:49 | 7.99759 | 93.33803 | 34849 ft | 461 kts | 114° |
| 2026-05-04 11:50 | 7.97121 | 93.39700 | 34846 ft | 461 kts | 114° |
| 2026-05-04 11:50 | 7.94499 | 93.45558 | 34848 ft | 461 kts | 114° |
| 2026-05-04 11:51 | 7.91862 | 93.51458 | 34853 ft | 461 kts | 114° |
| 2026-05-04 11:51 | 7.89239 | 93.57362 | 34846 ft | 461 kts | 114° |
| 2026-05-04 11:52 | 7.86619 | 93.63267 | 34850 ft | 461 kts | 114° |
| 2026-05-04 11:52 | 7.84000 | 93.69163 | 34848 ft | 461 kts | 114° |
| 2026-05-04 11:53 | 7.81382 | 93.75055 | 34846 ft | 461 kts | 114° |
| 2026-05-04 11:53 | 7.78756 | 93.80958 | 34849 ft | 461 kts | 114° |
| 2026-05-04 11:55 | 7.68271 | 94.04509 | 34854 ft | 461 kts | 114° |
| 2026-05-04 11:56 | 7.65646 | 94.10397 | 34845 ft | 461 kts | 114° |
| 2026-05-04 11:56 | 7.63026 | 94.16273 | 34850 ft | 461 kts | 114° |
| 2026-05-04 11:57 | 7.60402 | 94.22155 | 34854 ft | 461 kts | 114° |
| 2026-05-04 11:57 | 7.57786 | 94.28017 | 34853 ft | 462 kts | 114° |
| 2026-05-04 11:58 | 7.55151 | 94.33920 | 34853 ft | 462 kts | 114° |
| 2026-05-04 11:58 | 7.52515 | 94.39816 | 34852 ft | 461 kts | 114° |
| 2026-05-04 11:59 | 7.49791 | 94.45679 | 34849 ft | 461 kts | 116° |
| 2026-05-04 11:59 | 7.46958 | 94.51486 | 34848 ft | 461 kts | 116° |
| 2026-05-04 12:00 | 7.44115 | 94.57284 | 34858 ft | 461 kts | 116° |
| 2026-05-04 12:00 | 7.41307 | 94.63043 | 34853 ft | 460 kts | 116° |
| 2026-05-04 12:01 | 7.38499 | 94.68827 | 34853 ft | 459 kts | 116° |
| 2026-05-04 12:02 | 7.28662 | 94.89064 | 34852 ft | 459 kts | 116° |
| 2026-05-04 12:03 | 7.26322 | 94.93870 | 34856 ft | 459 kts | 116° |
| 2026-05-04 12:03 | 7.23512 | 94.99641 | 34856 ft | 458 kts | 116° |
| 2026-05-04 12:04 | 7.20704 | 95.05406 | 34854 ft | 458 kts | 116° |
| 2026-05-04 12:04 | 7.17898 | 95.11165 | 34853 ft | 457 kts | 115° |
| 2026-05-04 12:05 | 7.15101 | 95.16902 | 34860 ft | 456 kts | 115° |
| 2026-05-04 12:05 | 7.12307 | 95.22631 | 34852 ft | 456 kts | 116° |
| 2026-05-04 12:06 | 7.09514 | 95.28357 | 34860 ft | 456 kts | 116° |
| 2026-05-04 12:06 | 7.06736 | 95.34050 | 34857 ft | 455 kts | 116° |
| 2026-05-04 12:07 | 7.03947 | 95.39762 | 34853 ft | 453 kts | 116° |
| 2026-05-04 12:07 | 7.01167 | 95.45455 | 34859 ft | 453 kts | 116° |
| 2026-05-04 12:08 | 6.98383 | 95.51153 | 34847 ft | 453 kts | 116° |
| 2026-05-04 12:08 | 6.95600 | 95.56849 | 34858 ft | 453 kts | 116° |
| 2026-05-04 12:09 | 6.92811 | 95.62553 | 34847 ft | 453 kts | 116° |
| 2026-05-04 12:09 | 6.90045 | 95.68210 | 34859 ft | 453 kts | 116° |
| 2026-05-04 12:10 | 6.87259 | 95.73904 | 34857 ft | 455 kts | 116° |
| 2026-05-04 12:10 | 6.84452 | 95.79639 | 34862 ft | 457 kts | 116° |
| 2026-05-04 12:11 | 6.81634 | 95.85395 | 34863 ft | 458 kts | 116° |
| 2026-05-04 12:11 | 6.78836 | 95.91108 | 34858 ft | 457 kts | 116° |
| 2026-05-04 12:12 | 6.76023 | 95.96851 | 34845 ft | 457 kts | 116° |
| 2026-05-04 12:12 | 6.73210 | 96.02591 | 34860 ft | 457 kts | 116° |
| 2026-05-04 12:14 | 6.61982 | 96.25493 | 34859 ft | 456 kts | 116° |
| 2026-05-04 12:15 | 6.59170 | 96.31222 | 34862 ft | 456 kts | 116° |
| 2026-05-04 12:15 | 6.56358 | 96.36951 | 34862 ft | 456 kts | 116° |
| 2026-05-04 12:16 | 6.53541 | 96.42686 | 34863 ft | 456 kts | 116° |
| 2026-05-04 12:16 | 6.50810 | 96.48406 | 34864 ft | 456 kts | 111° |
| 2026-05-04 12:17 | 6.48798 | 96.54463 | 34860 ft | 456 kts | 107° |
| 2026-05-04 12:17 | 6.46986 | 96.60584 | 34859 ft | 457 kts | 106° |
| 2026-05-04 12:18 | 6.45212 | 96.66723 | 34862 ft | 457 kts | 106° |
| 2026-05-04 12:18 | 6.43431 | 96.72851 | 34862 ft | 457 kts | 106° |
| 2026-05-04 12:19 | 6.41635 | 96.78985 | 34863 ft | 456 kts | 106° |
| 2026-05-04 12:19 | 6.39851 | 96.85063 | 34859 ft | 455 kts | 106° |
| 2026-05-04 12:20 | 6.38054 | 96.91181 | 34863 ft | 456 kts | 106° |
| 2026-05-04 12:20 | 6.36256 | 96.97302 | 34863 ft | 456 kts | 106° |
| 2026-05-04 12:21 | 6.34458 | 97.03420 | 34864 ft | 456 kts | 106° |
| 2026-05-04 12:21 | 6.32660 | 97.09538 | 34866 ft | 456 kts | 106° |
| 2026-05-04 12:22 | 6.30857 | 97.15669 | 34866 ft | 456 kts | 106° |
| 2026-05-04 12:22 | 6.29069 | 97.21745 | 34864 ft | 456 kts | 106° |
| 2026-05-04 12:23 | 6.27268 | 97.27861 | 34864 ft | 456 kts | 106° |
| 2026-05-04 12:23 | 6.25462 | 97.33993 | 34864 ft | 456 kts | 106° |
| 2026-05-04 12:24 | 6.23664 | 97.40094 | 34865 ft | 456 kts | 106° |
| 2026-05-04 12:24 | 6.21861 | 97.46212 | 34866 ft | 456 kts | 106° |
| 2026-05-04 12:25 | 6.20058 | 97.52326 | 34865 ft | 456 kts | 106° |
| 2026-05-04 12:25 | 6.17811 | 97.58243 | 34867 ft | 457 kts | 118° |
| 2026-05-04 12:26 | 6.14078 | 97.63437 | 34866 ft | 461 kts | 129° |
| 2026-05-04 12:26 | 6.09897 | 97.68344 | 34863 ft | 462 kts | 130° |
| 2026-05-04 12:27 | 6.05648 | 97.73189 | 34867 ft | 462 kts | 130° |
| 2026-05-04 12:27 | 6.01411 | 97.78049 | 34867 ft | 462 kts | 130° |
| 2026-05-04 12:28 | 5.97202 | 97.82914 | 34868 ft | 461 kts | 130° |
| 2026-05-04 12:28 | 5.93001 | 97.87787 | 34869 ft | 461 kts | 130° |
| 2026-05-04 12:29 | 5.88834 | 97.92618 | 34867 ft | 461 kts | 130° |
| 2026-05-04 12:29 | 5.84632 | 97.97487 | 34868 ft | 461 kts | 130° |
| 2026-05-04 12:30 | 5.80433 | 98.02348 | 34867 ft | 461 kts | 130° |
| 2026-05-04 12:30 | 5.76231 | 98.07213 | 34868 ft | 461 kts | 130° |
| 2026-05-04 12:31 | 5.72024 | 98.12083 | 34871 ft | 461 kts | 130° |
| 2026-05-04 12:31 | 5.67823 | 98.16944 | 34869 ft | 461 kts | 130° |
| 2026-05-04 12:32 | 5.61519 | 98.24234 | 34868 ft | 461 kts | 130° |
| 2026-05-04 12:33 | 5.57339 | 98.29068 | 34869 ft | 461 kts | 130° |
| 2026-05-04 12:33 | 5.53120 | 98.33947 | 34868 ft | 461 kts | 130° |
| 2026-05-04 12:34 | 5.48919 | 98.38804 | 34871 ft | 459 kts | 130° |
| 2026-05-04 12:34 | 5.44735 | 98.43639 | 34874 ft | 458 kts | 130° |
| 2026-05-04 12:35 | 5.40556 | 98.48467 | 34876 ft | 458 kts | 130° |
| 2026-05-04 12:35 | 5.36390 | 98.53279 | 34876 ft | 458 kts | 130° |
| 2026-05-04 12:36 | 5.32205 | 98.58112 | 34876 ft | 458 kts | 130° |
| 2026-05-04 12:36 | 5.28015 | 98.62949 | 34877 ft | 458 kts | 130° |
| 2026-05-04 12:37 | 5.23828 | 98.67780 | 34875 ft | 459 kts | 130° |
| 2026-05-04 12:37 | 5.19659 | 98.72593 | 34874 ft | 459 kts | 130° |
| 2026-05-04 12:38 | 5.15461 | 98.77438 | 34877 ft | 460 kts | 130° |
| 2026-05-04 12:38 | 5.11258 | 98.82285 | 34876 ft | 460 kts | 130° |
| 2026-05-04 12:39 | 5.07050 | 98.87138 | 34876 ft | 461 kts | 130° |
| 2026-05-04 12:39 | 5.02845 | 98.91986 | 34877 ft | 461 kts | 130° |
| 2026-05-04 12:40 | 4.98658 | 98.96813 | 34874 ft | 461 kts | 130° |
| 2026-05-04 12:40 | 4.94453 | 99.01659 | 34879 ft | 461 kts | 130° |
| 2026-05-04 12:41 | 4.90245 | 99.06508 | 34877 ft | 461 kts | 130° |
| 2026-05-04 12:41 | 4.86033 | 99.11358 | 34878 ft | 462 kts | 131° |
| 2026-05-04 12:42 | 4.81808 | 99.16225 | 34877 ft | 462 kts | 131° |
| 2026-05-04 12:42 | 4.77581 | 99.21094 | 34883 ft | 463 kts | 131° |
| 2026-05-04 12:43 | 4.73352 | 99.25964 | 34884 ft | 463 kts | 131° |
| 2026-05-04 12:43 | 4.69146 | 99.30805 | 34883 ft | 463 kts | 131° |
| 2026-05-04 12:44 | 4.64905 | 99.35686 | 34883 ft | 463 kts | 131° |
| 2026-05-04 12:44 | 4.60670 | 99.40559 | 34885 ft | 463 kts | 131° |
| 2026-05-04 12:45 | 4.56471 | 99.45390 | 34881 ft | 463 kts | 131° |
| 2026-05-04 12:45 | 4.52237 | 99.50260 | 34881 ft | 461 kts | 131° |
| 2026-05-04 12:46 | 4.47959 | 99.55040 | 34881 ft | 461 kts | 133° |
| 2026-05-04 12:46 | 4.43466 | 99.59648 | 34881 ft | 462 kts | 134° |
| 2026-05-04 12:47 | 4.38931 | 99.64216 | 34883 ft | 462 kts | 134° |
| 2026-05-04 12:47 | 4.34421 | 99.68791 | 34883 ft | 461 kts | 134° |
| 2026-05-04 12:48 | 4.29948 | 99.73355 | 34885 ft | 462 kts | 134° |
| 2026-05-04 12:48 | 4.25449 | 99.77956 | 34887 ft | 462 kts | 134° |
| 2026-05-04 12:49 | 4.20947 | 99.82558 | 34885 ft | 462 kts | 134° |
| 2026-05-04 12:49 | 4.16450 | 99.87153 | 34885 ft | 460 kts | 134° |
| 2026-05-04 12:50 | 4.12732 | 99.90951 | 34886 ft | 459 kts | 134° |
| 2026-05-04 12:50 | 4.07529 | 99.96265 | 34888 ft | 459 kts | 134° |
| 2026-05-04 12:51 | 4.03055 | 100.00834 | 34887 ft | 459 kts | 134° |
| 2026-05-04 12:51 | 3.98582 | 100.05401 | 34887 ft | 459 kts | 134° |
| 2026-05-04 12:52 | 3.94857 | 100.09203 | 34889 ft | 459 kts | 134° |
| 2026-05-04 12:52 | 3.89653 | 100.14515 | 34888 ft | 459 kts | 134° |
| 2026-05-04 12:53 | 3.85902 | 100.18342 | 34887 ft | 459 kts | 134° |
| 2026-05-04 12:53 | 3.81424 | 100.22911 | 34889 ft | 461 kts | 134° |
| 2026-05-04 12:54 | 3.76950 | 100.27475 | 34884 ft | 462 kts | 134° |
| 2026-05-04 12:54 | 3.72453 | 100.32062 | 34887 ft | 461 kts | 134° |
| 2026-05-04 12:55 | 3.67953 | 100.36652 | 34886 ft | 461 kts | 134° |
| 2026-05-04 12:55 | 3.63465 | 100.41229 | 34887 ft | 461 kts | 134° |
| 2026-05-04 12:56 | 3.58975 | 100.45807 | 34891 ft | 461 kts | 134° |
| 2026-05-04 12:56 | 3.54480 | 100.50388 | 34891 ft | 461 kts | 134° |
| 2026-05-04 12:57 | 3.50077 | 100.55055 | 34893 ft | 460 kts | 128° |
| 2026-05-04 12:57 | 3.46129 | 100.60098 | 34892 ft | 460 kts | 126° |
| 2026-05-04 12:58 | 3.42289 | 100.65200 | 34893 ft | 461 kts | 126° |
| 2026-05-04 12:58 | 3.38450 | 100.70339 | 34893 ft | 461 kts | 126° |
| 2026-05-04 12:59 | 3.34603 | 100.75475 | 34887 ft | 460 kts | 126° |
| 2026-05-04 12:59 | 3.30758 | 100.80593 | 34889 ft | 460 kts | 126° |
| 2026-05-04 13:00 | 3.26912 | 100.85708 | 34892 ft | 460 kts | 126° |
| 2026-05-04 13:00 | 3.23059 | 100.90832 | 34894 ft | 460 kts | 126° |
| 2026-05-04 13:01 | 3.19213 | 100.95946 | 34895 ft | 460 kts | 126° |
| 2026-05-04 13:01 | 3.15365 | 101.01061 | 34892 ft | 460 kts | 126° |
| 2026-05-04 13:02 | 3.11516 | 101.06178 | 34892 ft | 460 kts | 126° |
| 2026-05-04 13:02 | 3.07670 | 101.11290 | 34892 ft | 460 kts | 126° |
| 2026-05-04 13:03 | 3.03842 | 101.16377 | 34892 ft | 460 kts | 126° |
| 2026-05-04 13:03 | 2.99990 | 101.21495 | 34892 ft | 460 kts | 126° |
| 2026-05-04 13:04 | 2.96145 | 101.26603 | 34889 ft | 459 kts | 126° |
| 2026-05-04 13:04 | 2.92300 | 101.31712 | 34690 ft | 459 kts | 126° |
| 2026-05-04 13:04 | 2.90378 | 101.34264 | 34376 ft | 460 kts | 126° |
| 2026-05-04 13:05 | 2.88469 | 101.36798 | 34070 ft | 461 kts | 126° |
| 2026-05-04 13:05 | 2.86515 | 101.39393 | 33738 ft | 462 kts | 126° |
| 2026-05-04 13:05 | 2.84606 | 101.41928 | 33386 ft | 462 kts | 126° |
| 2026-05-04 13:05 | 2.82669 | 101.44499 | 33039 ft | 462 kts | 126° |
| 2026-05-04 13:06 | 2.80730 | 101.47073 | 32675 ft | 462 kts | 126° |
| 2026-05-04 13:06 | 2.78796 | 101.49640 | 32333 ft | 462 kts | 126° |
| 2026-05-04 13:06 | 2.76861 | 101.52209 | 31994 ft | 462 kts | 126° |
| 2026-05-04 13:06 | 2.74920 | 101.54784 | 31660 ft | 462 kts | 126° |
| 2026-05-04 13:07 | 2.72983 | 101.57355 | 31328 ft | 462 kts | 126° |
| 2026-05-04 13:07 | 2.71073 | 101.59890 | 31007 ft | 462 kts | 126° |